Time;durP1;ratioP1;P1;durP2;ratioP2;P2;SDS_P1;SDS_P2;PMS_P1;PMS_P2;Temp;Humidity;BMP_temperature;BMP_pressure;BME280_temperature;BME280_humidity;BME280_pressure;Samples;Min_cycle;Max_cycle;Signal;HPM_P1;HPM_P2
2021/05/05 00:00:11;;;;;;;6.78;1.75;;;8.30;1.00;;;;;;5033571;28;20255;-56
2021/05/05 00:02:37;;;;;;;1.80;1.20;;;8.20;1.00;;;;;;5033759;28;20199;-56
2021/05/05 00:05:03;;;;;;;2.97;1.40;;;8.20;99.90;;;;;;5033178;28;20627;-55
2021/05/05 00:07:28;;;;;;;5.20;1.50;;;8.10;99.90;;;;;;5033689;28;20185;-55
2021/05/05 00:09:54;;;;;;;1.53;1.13;;;8.10;99.90;;;;;;5033244;28;20209;-55
2021/05/05 00:12:19;;;;;;;2.60;1.30;;;8.00;99.90;;;;;;5033678;28;20217;-55
2021/05/05 00:14:45;;;;;;;1.57;0.90;;;8.00;1.00;;;;;;5032289;28;20613;-55
2021/05/05 00:17:12;;;;;;;1.63;0.80;;;7.90;1.00;;;;;;5033589;28;20184;-55
2021/05/05 00:19:37;;;;;;;3.05;2.05;;;7.80;1.00;;;;;;5033478;28;20182;-55
2021/05/05 00:22:03;;;;;;;3.30;1.90;;;7.70;1.00;;;;;;5033397;28;20183;-55
2021/05/05 00:24:28;;;;;;;4.20;1.57;;;7.70;1.00;;;;;;5032966;28;20204;-55
2021/05/05 00:26:54;;;;;;;1.40;1.20;;;7.90;1.00;;;;;;5033618;28;20183;-55
2021/05/05 00:29:20;;;;;;;1.87;1.47;;;7.90;1.00;;;;;;5032281;28;20179;-55
2021/05/05 00:31:45;;;;;;;7.63;1.73;;;7.90;1.00;;;;;;5033580;28;20631;-55
2021/05/05 00:34:11;;;;;;;2.67;1.23;;;7.90;99.90;;;;;;5033028;28;20182;-55
2021/05/05 00:36:36;;;;;;;2.57;1.40;;;8.00;99.90;;;;;;5033340;28;20190;-55
2021/05/05 00:39:04;;;;;;;4.80;1.13;;;8.00;99.90;;;;;;5033199;28;20182;-55
2021/05/05 00:41:29;;;;;;;4.72;1.75;;;8.10;99.90;;;;;;5033255;28;20170;-55
2021/05/05 00:43:55;;;;;;;5.03;1.67;;;8.10;99.90;;;;;;5032848;28;20235;-55
2021/05/05 00:46:21;;;;;;;3.80;1.50;;;8.20;99.90;;;;;;5033088;28;20204;-55
2021/05/05 00:48:46;;;;;;;3.63;1.57;;;8.10;99.90;;;;;;5033099;28;20502;-55
2021/05/05 00:51:12;;;;;;;3.33;1.20;;;8.10;99.90;;;;;;5031671;28;20433;-55
2021/05/05 00:53:40;;;;;;;4.97;1.37;;;8.10;99.90;;;;;;5032817;28;20198;-55
2021/05/05 00:56:06;;;;;;;5.47;1.40;;;8.20;99.80;;;;;;5032510;28;20203;-55
2021/05/05 00:58:31;;;;;;;2.50;1.40;;;8.20;1.00;;;;;;5033267;28;20200;-55
2021/05/05 01:00:57;;;;;;;2.60;1.87;;;8.20;1.00;;;;;;5032890;28;20184;-55
2021/05/05 01:03:23;;;;;;;2.30;1.47;;;8.20;1.00;;;;;;5032707;28;20566;-55
2021/05/05 01:05:50;;;;;;;3.87;1.80;;;8.30;1.00;;;;;;5032628;28;20219;-55
2021/05/05 01:08:19;;;;;;;1.30;1.08;;;8.30;41.40;;;;;;5031881;28;20192;-55
2021/05/05 01:10:45;;;;;;;1.70;1.33;;;8.20;1.00;;;;;;5033577;28;20229;-55
2021/05/05 01:13:13;;;;;;;2.03;1.10;;;8.20;1.00;;;;;;5036678;28;20704;-55
2021/05/05 01:15:39;;;;;;;2.17;1.58;;;8.30;10.40;;;;;;5036583;28;20462;-55
2021/05/05 01:18:05;;;;;;;2.60;1.30;;;8.20;92.40;;;;;;5036853;28;20176;-55
2021/05/05 01:20:31;;;;;;;4.60;1.57;;;8.20;99.90;;;;;;5036762;28;20214;-55
2021/05/05 01:22:57;;;;;;;3.25;1.40;;;8.20;49.10;;;;;;5036565;28;20218;-55
2021/05/05 01:25:23;;;;;;;3.10;1.37;;;8.20;99.90;;;;;;5036180;28;20209;-55
2021/05/05 01:27:49;;;;;;;3.40;1.45;;;8.10;99.90;;;;;;5036701;28;20435;-55
2021/05/05 01:30:17;;;;;;;3.77;1.97;;;8.20;99.90;;;;;;5035815;28;20242;-55
2021/05/05 01:32:44;;;;;;;3.20;1.50;;;8.20;99.90;;;;;;5036555;28;20212;-55
2021/05/05 01:35:11;;;;;;;6.30;1.92;;;8.10;99.90;;;;;;5035950;28;20193;-55
2021/05/05 01:37:40;;;;;;;3.75;1.88;;;8.10;99.90;;;;;;5036716;28;20182;-55
2021/05/05 01:40:08;;;;;;;1.85;1.40;;;8.00;99.90;;;;;;5036467;28;20316;-55
2021/05/05 01:42:33;;;;;;;1.15;0.98;;;8.00;99.90;;;;;;5036413;28;20523;-55
2021/05/05 01:44:59;;;;;;;3.03;1.70;;;7.90;99.90;;;;;;5035827;28;20182;-55
2021/05/05 01:47:24;;;;;;;2.03;1.20;;;7.90;99.90;;;;;;5036182;28;20192;-55
2021/05/05 01:49:50;;;;;;;2.07;1.10;;;7.90;99.90;;;;;;5036157;28;20232;-55
2021/05/05 01:52:17;;;;;;;3.47;1.10;;;7.90;99.90;;;;;;5036341;28;20210;-54
2021/05/05 01:54:43;;;;;;;3.05;1.20;;;7.90;98.70;;;;;;5035894;28;20271;-55
2021/05/05 01:57:33;;;;;;;1.60;1.17;;;7.90;99.90;;;;;;5036772;28;20585;-55
2021/05/05 02:00:00;;;;;;;3.40;1.15;;;7.90;99.90;;;;;;5036752;28;20440;-55
2021/05/05 02:02:30;;;;;;;2.35;1.10;;;7.90;99.90;;;;;;5036178;28;20178;-55
2021/05/05 02:04:56;;;;;;;2.10;1.00;;;7.90;99.90;;;;;;5036208;28;20228;-55
2021/05/05 02:07:22;;;;;;;1.35;1.10;;;7.80;99.90;;;;;;5040656;28;20253;-54
2021/05/05 02:09:48;;;;;;;2.60;1.57;;;7.90;99.90;;;;;;5041274;28;20186;-55
2021/05/05 02:12:15;;;;;;;4.55;1.50;;;7.80;99.90;;;;;;5041026;28;20252;-54
2021/05/05 02:14:42;;;;;;;4.10;1.23;;;7.80;99.90;;;;;;5040960;28;20177;-54
2021/05/05 02:17:07;;;;;;;3.78;1.50;;;7.70;99.90;;;;;;5042453;28;20323;-55
2021/05/05 02:19:33;;;;;;;3.50;1.27;;;7.80;99.90;;;;;;5041783;28;20194;-55
2021/05/05 02:21:59;;;;;;;2.70;1.50;;;7.80;99.90;;;;;;5042542;28;20635;-55
2021/05/05 02:24:24;;;;;;;2.87;1.50;;;7.90;99.90;;;;;;5041535;28;20420;-54
2021/05/05 02:26:50;;;;;;;3.47;1.53;;;7.90;99.90;;;;;;5042657;28;20177;-54
2021/05/05 02:29:16;;;;;;;6.00;1.30;;;7.80;99.90;;;;;;5037423;28;20260;-55
2021/05/05 02:31:41;;;;;;;5.87;1.40;;;7.90;99.90;;;;;;5036135;28;20927;-54
2021/05/05 02:34:07;;;;;;;2.13;1.10;;;7.90;99.90;;;;;;5035260;28;20202;-55
2021/05/05 02:36:34;;;;;;;6.40;2.17;;;7.90;99.90;;;;;;5034656;28;20529;-55
2021/05/05 02:39:02;;;;;;;2.95;1.17;;;7.80;99.90;;;;;;5035758;28;20266;-55
2021/05/05 02:41:27;;;;;;;1.45;1.35;;;7.80;99.90;;;;;;5035389;28;20267;-55
2021/05/05 02:43:53;;;;;;;3.23;1.20;;;7.80;99.90;;;;;;5034652;28;20203;-55
2021/05/05 02:46:19;;;;;;;4.87;1.57;;;7.80;99.90;;;;;;5035120;28;20319;-55
2021/05/05 02:48:44;;;;;;;6.23;1.77;;;7.80;99.90;;;;;;5035116;28;20279;-55
2021/05/05 02:51:10;;;;;;;6.23;1.83;;;7.80;99.90;;;;;;5035074;28;20190;-55
2021/05/05 02:53:36;;;;;;;5.70;1.50;;;7.80;99.90;;;;;;5034717;28;20495;-55
2021/05/05 02:56:02;;;;;;;1.90;1.37;;;7.80;99.90;;;;;;5034757;28;20435;-55
2021/05/05 02:58:28;;;;;;;3.45;1.63;;;7.80;99.90;;;;;;5034764;28;20174;-55
2021/05/05 03:00:54;;;;;;;1.50;1.40;;;7.80;99.90;;;;;;5034825;28;20202;-55
2021/05/05 03:03:19;;;;;;;2.50;1.43;;;7.90;99.90;;;;;;5035145;28;20185;-56
2021/05/05 03:05:45;;;;;;;1.77;1.30;;;7.80;99.90;;;;;;5035038;28;20249;-55
2021/05/05 03:08:10;;;;;;;2.47;1.30;;;7.70;99.90;;;;;;5034643;28;20572;-55
2021/05/05 03:10:36;;;;;;;2.03;1.20;;;7.70;99.90;;;;;;5034466;28;20198;-55
2021/05/05 03:13:04;;;;;;;1.50;0.90;;;7.60;99.90;;;;;;5034536;28;20202;-55
2021/05/05 03:15:30;;;;;;;2.17;1.30;;;7.60;99.90;;;;;;5034450;28;20187;-56
2021/05/05 03:17:55;;;;;;;4.37;1.53;;;7.60;99.90;;;;;;5034380;28;20170;-55
2021/05/05 03:20:21;;;;;;;2.10;1.13;;;7.60;99.90;;;;;;5033444;28;20184;-55
2021/05/05 03:22:46;;;;;;;5.60;1.60;;;7.50;99.90;;;;;;5034373;28;20186;-55
2021/05/05 03:25:12;;;;;;;3.30;0.97;;;7.60;99.90;;;;;;5034208;28;20189;-55
2021/05/05 03:27:38;;;;;;;8.43;2.20;;;7.60;99.90;;;;;;5034321;28;20186;-55
2021/05/05 03:30:06;;;;;;;6.63;3.90;;;7.50;99.90;;;;;;5034198;28;20182;-55
2021/05/05 03:32:31;;;;;;;3.28;1.40;;;7.60;99.90;;;;;;5034717;28;20257;-55
2021/05/05 03:34:57;;;;;;;4.53;1.53;;;7.60;99.90;;;;;;5033580;28;20174;-55
2021/05/05 03:37:23;;;;;;;4.33;1.00;;;7.70;99.90;;;;;;5034412;28;20582;-55
2021/05/05 03:39:48;;;;;;;2.00;1.10;;;7.60;99.90;;;;;;5034389;28;20248;-55
2021/05/05 03:42:14;;;;;;;3.40;1.40;;;7.60;99.90;;;;;;5034037;28;20424;-56
2021/05/05 03:44:40;;;;;;;1.70;1.10;;;7.70;99.90;;;;;;5033797;28;20178;-56
2021/05/05 03:47:06;;;;;;;4.88;1.20;;;7.60;99.90;;;;;;5033823;28;20513;-56
2021/05/05 03:49:32;;;;;;;1.90;1.30;;;7.50;99.90;;;;;;5034098;28;20261;-56
2021/05/05 03:51:57;;;;;;;1.83;1.37;;;7.60;99.90;;;;;;5030705;28;20607;-56
2021/05/05 03:54:23;;;;;;;3.33;1.10;;;7.60;99.90;;;;;;5033154;28;20227;-56
2021/05/05 03:56:48;;;;;;;4.77;1.23;;;7.60;99.90;;;;;;5033642;28;20178;-57
2021/05/05 03:59:14;;;;;;;1.77;1.27;;;7.50;99.90;;;;;;5032693;28;20618;-54
2021/05/05 04:01:40;;;;;;;2.10;1.07;;;7.50;99.90;;;;;;5033688;28;20167;-56
2021/05/05 04:04:05;;;;;;;1.93;1.10;;;7.60;99.90;;;;;;5033215;28;20188;-54
2021/05/05 04:06:31;;;;;;;1.77;1.40;;;7.50;99.90;;;;;;5033827;28;20255;-54
2021/05/05 04:08:57;;;;;;;2.13;1.10;;;7.50;99.90;;;;;;5033751;28;20186;-57
2021/05/05 04:11:22;;;;;;;2.60;1.10;;;7.50;99.90;;;;;;5033539;28;20202;-56
2021/05/05 04:13:48;;;;;;;2.10;1.23;;;7.60;99.90;;;;;;5032778;28;20206;-54
2021/05/05 04:16:14;;;;;;;4.00;1.47;;;7.50;99.90;;;;;;5033741;28;20682;-54
2021/05/05 04:18:39;;;;;;;3.67;1.25;;;7.50;99.90;;;;;;5033283;28;20180;-54
2021/05/05 04:21:08;;;;;;;2.17;1.30;;;7.50;99.90;;;;;;5033657;28;20171;-54
2021/05/05 04:23:35;;;;;;;5.05;1.10;;;7.50;99.90;;;;;;5032997;28;20217;-57
2021/05/05 04:26:00;;;;;;;2.55;1.50;;;7.60;99.90;;;;;;5033221;28;20210;-54
2021/05/05 04:28:27;;;;;;;1.80;1.50;;;7.50;99.90;;;;;;5033254;28;20236;-54
2021/05/05 04:30:53;;;;;;;2.72;1.30;;;7.60;99.90;;;;;;5033229;28;20432;-55
2021/05/05 04:33:18;;;;;;;1.75;1.40;;;7.50;1.00;;;;;;5032961;28;20575;-55
2021/05/05 04:35:44;;;;;;;3.27;1.67;;;7.40;1.00;;;;;;5032799;28;20177;-55
2021/05/05 04:38:10;;;;;;;2.03;1.27;;;7.50;1.00;;;;;;5033045;28;20193;-55
2021/05/05 04:40:39;;;;;;;3.30;1.30;;;7.40;1.00;;;;;;5033549;28;20174;-55
2021/05/05 04:43:05;;;;;;;4.45;1.50;;;7.50;1.00;;;;;;5033100;28;20466;-55
2021/05/05 04:45:31;;;;;;;4.30;1.42;;;7.50;1.00;;;;;;5032911;28;20193;-55
2021/05/05 04:47:57;;;;;;;4.97;1.60;;;7.60;1.00;;;;;;5033320;28;20185;-56
2021/05/05 04:50:22;;;;;;;3.73;1.47;;;7.60;1.00;;;;;;5032501;28;20543;-55
2021/05/05 04:52:48;;;;;;;3.50;1.40;;;7.60;1.00;;;;;;5032620;28;20706;-55
2021/05/05 04:55:16;;;;;;;2.60;1.27;;;7.60;1.00;;;;;;5032258;28;20184;-55
2021/05/05 04:57:41;;;;;;;2.33;1.25;;;7.70;1.00;;;;;;5033019;28;20193;-56
2021/05/05 05:00:08;;;;;;;4.33;1.33;;;7.70;99.90;;;;;;5032770;28;20186;-55
2021/05/05 05:02:34;;;;;;;2.95;1.50;;;7.60;99.90;;;;;;5032730;28;20178;-56
2021/05/05 05:05:01;;;;;;;3.33;1.50;;;7.60;99.90;;;;;;5032171;28;20180;-55
2021/05/05 05:07:26;;;;;;;1.85;1.60;;;7.60;99.90;;;;;;5032606;28;20205;-56
2021/05/05 05:09:52;;;;;;;3.83;1.97;;;7.60;99.90;;;;;;5032661;28;20193;-55
2021/05/05 05:12:18;;;;;;;1.40;0.93;;;7.60;99.90;;;;;;5032794;28;20646;-55
2021/05/05 05:14:43;;;;;;;2.53;1.23;;;7.60;99.90;;;;;;5031995;28;20174;-55
2021/05/05 05:17:09;;;;;;;2.30;1.10;;;7.80;99.90;;;;;;5032561;28;20231;-56
2021/05/05 05:19:34;;;;;;;4.87;1.23;;;7.90;12.30;;;;;;5032590;28;20182;-56
2021/05/05 05:22:00;;;;;;;3.90;1.07;;;7.90;15.10;;;;;;5032504;28;20239;-55
2021/05/05 05:24:27;;;;;;;3.53;1.00;;;8.00;1.00;;;;;;5031797;28;20177;-55
2021/05/05 05:26:52;;;;;;;1.20;1.10;;;7.90;99.90;;;;;;5033630;28;20429;-59
2021/05/05 05:29:18;;;;;;;1.90;0.90;;;7.80;99.90;;;;;;5033959;28;20182;-59
2021/05/05 05:31:44;;;;;;;2.53;1.27;;;7.90;99.90;;;;;;5034091;28;20178;-61
2021/05/05 05:34:10;;;;;;;1.50;1.40;;;7.90;99.90;;;;;;5032407;28;20240;-58
2021/05/05 05:36:36;;;;;;;2.40;1.20;;;7.70;99.90;;;;;;5033055;28;20655;-58
2021/05/05 05:39:02;;;;;;;2.43;1.20;;;7.90;99.90;;;;;;5034083;28;20174;-58
2021/05/05 05:41:28;;;;;;;2.88;1.35;;;7.90;99.90;;;;;;5034008;28;20178;-58
2021/05/05 05:43:53;;;;;;;4.30;1.87;;;7.90;1.00;;;;;;5033322;28;20184;-59
2021/05/05 05:46:19;;;;;;;4.03;1.50;;;7.90;1.00;;;;;;5034593;28;20184;-58
2021/05/05 05:48:44;;;;;;;9.33;1.43;;;7.80;1.00;;;;;;5034431;28;20192;-58
2021/05/05 05:51:10;;;;;;;3.63;1.53;;;7.70;1.00;;;;;;5033823;28;20261;-58
2021/05/05 05:53:36;;;;;;;4.73;1.83;;;7.70;1.00;;;;;;5032090;28;20277;-58
2021/05/05 05:56:02;;;;;;;1.40;1.30;;;7.80;1.00;;;;;;5032256;28;20435;-58
2021/05/05 05:58:28;;;;;;;6.40;1.55;;;7.90;1.00;;;;;;5038307;28;20177;-58
2021/05/05 06:00:53;;;;;;;2.50;1.50;;;8.50;1.00;;;;;;5038409;28;20207;-59
2021/05/05 06:03:19;;;;;;;3.30;1.30;;;8.90;99.20;;;;;;5039166;28;20215;-58
2021/05/05 06:05:44;;;;;;;4.67;1.27;;;9.20;99.90;;;;;;5040342;28;20201;-59
2021/05/05 06:08:10;;;;;;;2.93;1.23;;;9.40;97.50;;;;;;5040338;28;20598;-58
2021/05/05 06:10:36;;;;;;;4.00;1.40;;;9.30;1.00;;;;;;5039497;28;20712;-61
2021/05/05 06:13:01;;;;;;;1.47;1.37;;;9.30;99.90;;;;;;5038889;28;20212;-59
2021/05/05 06:15:30;;;;;;;4.15;1.35;;;9.00;1.00;;;;;;5036278;28;20709;-59
2021/05/05 06:17:57;;;;;;;2.95;1.50;;;8.70;99.90;;;;;;5037623;28;20234;-59
2021/05/05 06:20:23;;;;;;;2.90;1.48;;;8.80;1.00;;;;;;5037722;28;20688;-59
2021/05/05 06:22:48;;;;;;;2.60;1.30;;;8.70;1.00;;;;;;5038240;28;20180;-59
2021/05/05 06:25:14;;;;;;;2.00;1.40;;;8.60;1.00;;;;;;5037996;28;20218;-59
2021/05/05 06:27:39;;;;;;;4.90;1.57;;;8.70;1.00;;;;;;5036900;28;20192;-59
2021/05/05 06:30:07;;;;;;;4.40;1.30;;;8.60;1.00;;;;;;5037136;28;20260;-60
2021/05/05 06:32:33;;;;;;;8.10;1.63;;;8.70;1.00;;;;;;5036055;28;20661;-60
2021/05/05 06:34:59;;;;;;;7.22;1.80;;;8.70;99.90;;;;;;5036793;28;20212;-59
2021/05/05 06:37:25;;;;;;;5.13;1.80;;;8.60;1.00;;;;;;5036739;28;20212;-59
2021/05/05 06:39:52;;;;;;;3.03;1.17;;;8.40;99.90;;;;;;5035718;28;20194;-59
2021/05/05 06:42:18;;;;;;;2.45;1.70;;;8.40;1.00;;;;;;5037302;28;20450;-60
2021/05/05 06:44:43;;;;;;;4.07;1.80;;;8.60;1.00;;;;;;5037759;28;20530;-59
2021/05/05 06:47:12;;;;;;;2.53;1.33;;;8.60;1.00;;;;;;5038017;28;20559;-59
2021/05/05 06:49:38;;;;;;;5.15;1.40;;;8.50;1.00;;;;;;5036837;28;20212;-60
2021/05/05 06:52:03;;;;;;;2.77;1.50;;;8.40;1.00;;;;;;5037354;28;20181;-60
2021/05/05 06:54:29;;;;;;;3.93;1.93;;;8.50;99.90;;;;;;5037540;28;20241;-60
2021/05/05 06:56:55;;;;;;;2.50;1.30;;;8.40;99.90;;;;;;5037734;28;20422;-61
2021/05/05 06:59:21;;;;;;;5.23;1.53;;;8.30;99.90;;;;;;5037025;28;20418;-59
2021/05/05 07:01:46;;;;;;;4.40;1.53;;;8.00;1.00;;;;;;5038066;28;20708;-59
2021/05/05 07:04:15;;;;;;;2.50;1.30;;;8.10;1.00;;;;;;5041285;28;20187;-60
2021/05/05 07:06:42;;;;;;;1.65;1.20;;;8.20;1.00;;;;;;5061216;28;20194;-60
2021/05/05 07:09:11;;;;;;;2.65;1.13;;;8.10;1.00;;;;;;5056532;28;20179;-61
2021/05/05 07:11:39;;;;;;;2.65;1.73;;;8.30;1.00;;;;;;5057699;28;20234;-60
2021/05/05 07:14:06;;;;;;;5.25;1.90;;;8.20;1.00;;;;;;5054253;28;20207;-63
2021/05/05 07:16:33;;;;;;;3.33;1.60;;;8.10;1.00;;;;;;5051992;28;20173;-65
2021/05/05 07:18:59;;;;;;;6.35;1.50;;;8.20;1.00;;;;;;5052865;28;20179;-64
2021/05/05 07:21:25;;;;;;;4.77;1.73;;;8.00;1.00;;;;;;5054051;28;20561;-64
2021/05/05 07:23:51;;;;;;;2.88;2.33;;;8.10;1.00;;;;;;5053599;28;20441;-64
2021/05/05 07:26:17;;;;;;;3.40;2.00;;;8.00;1.00;;;;;;5054470;28;20181;-63
2021/05/05 07:28:43;;;;;;;3.10;1.70;;;8.10;1.00;;;;;;5054034;28;20636;-63
2021/05/05 07:31:09;;;;;;;5.80;2.00;;;8.00;1.00;;;;;;5053699;28;20176;-65
2021/05/05 07:33:38;;;;;;;2.65;2.13;;;8.00;1.00;;;;;;5054189;28;20466;-65
2021/05/05 07:36:07;;;;;;;3.78;1.25;;;7.90;1.00;;;;;;5054422;28;20222;-65
2021/05/05 07:46:28;;;;;;;2.42;1.25;;;7.80;1.00;;;;;;5074712;28;20186;-65
2021/05/05 07:48:56;;;;;;;4.07;1.70;;;8.00;1.00;;;;;;5066882;28;20555;-63
2021/05/05 07:51:22;;;;;;;1.88;1.60;;;7.70;1.00;;;;;;5053980;28;20195;-63
2021/05/05 07:53:49;;;;;;;7.55;2.42;;;7.70;1.00;;;;;;5054007;28;20209;-63
2021/05/05 07:56:15;;;;;;;1.92;1.80;;;7.80;25.80;;;;;;5053974;28;20177;-65
2021/05/05 07:58:42;;;;;;;1.80;1.70;;;7.90;64.60;;;;;;5053504;28;20181;-62
2021/05/05 08:01:09;;;;;;;3.88;2.00;;;7.80;26.50;;;;;;5054627;28;20260;-67
2021/05/05 08:03:35;;;;;;;2.88;1.90;;;7.90;52.90;;;;;;5053734;28;20195;-68
2021/05/05 08:06:01;;;;;;;3.17;1.83;;;8.00;41.60;;;;;;5054002;28;20173;-68
2021/05/05 08:08:26;;;;;;;4.97;1.97;;;7.90;11.90;;;;;;5053856;28;20506;-67
2021/05/05 08:10:52;;;;;;;9.63;2.30;;;7.90;1.00;;;;;;5053489;28;20287;-66
2021/05/05 08:13:17;;;;;;;4.03;1.90;;;7.90;5.00;;;;;;5067591;28;20292;-66
2021/05/05 08:15:43;;;;;;;5.27;2.53;;;8.00;1.00;;;;;;5071745;28;20498;-64
2021/05/05 08:18:10;;;;;;;3.03;1.90;;;8.00;1.00;;;;;;5073195;28;20182;-67
2021/05/05 08:20:36;;;;;;;5.80;2.10;;;8.00;12.60;;;;;;5072920;28;20180;-67
2021/05/05 08:23:04;;;;;;;2.85;1.80;;;8.10;1.00;;;;;;5065129;28;20526;-67
2021/05/05 08:25:31;;;;;;;13.32;2.47;;;8.30;1.00;;;;;;5052523;28;20180;-68
2021/05/05 08:27:57;;;;;;;5.70;1.90;;;8.50;1.00;;;;;;5053370;28;20170;-66
2021/05/05 08:30:23;;;;;;;5.63;1.80;;;8.50;1.00;;;;;;5053286;28;20191;-66
2021/05/05 08:32:49;;;;;;;9.02;1.75;;;8.60;1.00;;;;;;5053197;28;20962;-65
2021/05/05 08:35:15;;;;;;;5.70;2.10;;;8.50;1.00;;;;;;5052991;28;20187;-68
2021/05/05 08:37:41;;;;;;;5.55;2.28;;;8.70;1.00;;;;;;5040514;28;20191;-67
2021/05/05 08:40:09;;;;;;;5.13;1.90;;;8.70;1.00;;;;;;5033096;28;20178;-67
2021/05/05 08:42:36;;;;;;;5.53;2.22;;;8.80;1.00;;;;;;5033619;28;20184;-66
2021/05/05 08:45:02;;;;;;;7.07;4.00;;;8.70;1.00;;;;;;5032565;28;20183;-66
2021/05/05 08:47:28;;;;;;;3.13;2.20;;;8.50;1.00;;;;;;5038338;28;20206;-67
2021/05/05 08:49:54;;;;;;;5.40;1.97;;;8.30;1.00;;;;;;5045702;28;20523;-68
2021/05/05 08:52:20;;;;;;;6.37;1.80;;;8.30;1.00;;;;;;5036737;28;20192;-66
2021/05/05 08:54:53;;;;;;;1.70;1.60;;;8.30;1.00;;;;;;5051951;28;20183;-66
2021/05/05 08:57:21;;;;;;;6.07;2.78;;;8.30;1.00;;;;;;5042994;28;20264;-67
2021/05/05 08:59:46;;;;;;;5.72;2.00;;;8.60;1.00;;;;;;5048488;28;20179;-65
2021/05/05 09:02:12;;;;;;;7.63;2.13;;;8.80;1.00;;;;;;5048326;28;20489;-68
2021/05/05 09:04:38;;;;;;;10.02;2.47;;;8.90;1.00;;;;;;5051868;28;20179;-67
2021/05/05 09:07:03;;;;;;;4.50;1.57;;;8.90;1.00;;;;;;5052173;28;20524;-67
2021/05/05 09:09:44;;;;;;;5.43;2.30;;;8.80;1.00;;;;;;5051292;28;20183;-67
2021/05/05 09:12:16;;;;;;;6.20;2.30;;;8.80;1.00;;;;;;5054953;28;20635;-64
2021/05/05 09:15:08;;;;;;;7.97;2.13;;;8.80;1.00;;;;;;5071579;28;20199;-62
2021/05/05 09:17:37;;;;;;;3.33;2.00;;;8.90;1.00;;;;;;5061943;28;20238;-63
2021/05/05 09:20:06;;;;;;;4.15;1.67;;;8.60;1.00;;;;;;5052527;28;20512;-64
2021/05/05 09:22:48;;;;;;;3.90;1.88;;;8.70;1.00;;;;;;5045723;28;20182;-64
2021/05/05 09:25:17;;;;;;;4.18;1.60;;;8.40;1.00;;;;;;5051923;28;20188;-63
2021/05/05 09:28:04;;;;;;;7.68;1.60;;;8.50;1.00;;;;;;5051566;28;20195;-65
2021/05/05 09:30:29;;;;;;;1.65;1.30;;;8.40;1.00;;;;;;5052348;28;20198;-67
2021/05/05 09:32:55;;;;;;;2.30;1.10;;;8.40;1.00;;;;;;5054576;28;20532;-67
2021/05/05 09:35:35;;;;;;;5.37;1.97;;;8.50;1.00;;;;;;5055528;28;20510;-67
2021/05/05 09:38:07;;;;;;;2.95;1.75;;;8.50;1.00;;;;;;5056303;28;20204;-68
2021/05/05 09:40:34;;;;;;;2.83;1.60;;;8.70;1.00;;;;;;5055209;28;20190;-67
2021/05/05 09:43:17;;;;;;;3.92;1.17;;;9.10;1.00;;;;;;5056399;28;20324;-67
2021/05/05 09:45:43;;;;;;;5.85;1.48;;;9.20;1.00;;;;;;5055764;28;20192;-68
2021/05/05 09:48:09;;;;;;;4.30;2.00;;;9.30;1.00;;;;;;5056575;28;20606;-63
2021/05/05 09:50:36;;;;;;;3.42;2.55;;;9.80;1.00;;;;;;5056026;28;20188;-63
2021/05/05 09:53:23;;;;;;;3.15;1.70;;;10.00;99.90;;;;;;5054641;28;20250;-64
2021/05/05 09:55:51;;;;;;;1.75;1.25;;;10.10;99.90;;;;;;5056890;28;20204;-65
2021/05/05 09:58:36;;;;;;;5.72;2.38;;;10.50;99.90;;;;;;5056842;28;20552;-61
2021/05/05 10:01:08;;;;;;;5.93;2.22;;;10.70;99.90;;;;;;5055515;28;20496;-65
2021/05/05 10:03:39;;;;;;;4.60;1.90;;;10.90;32.30;;;;;;5056747;28;20268;-65
2021/05/05 10:06:27;;;;;;;5.05;1.70;;;11.10;99.90;;;;;;5060190;28;20184;-60
2021/05/05 10:08:54;;;;;;;4.20;1.55;;;10.90;99.90;;;;;;5060481;28;20238;-63
2021/05/05 10:11:26;;;;;;;2.33;1.63;;;11.00;1.00;;;;;;5061117;28;20471;-64
2021/05/05 10:13:53;;;;;;;5.40;2.50;;;10.80;99.90;;;;;;5060609;28;20370;-60
2021/05/05 10:16:20;;;;;;;4.22;2.63;;;10.80;99.90;;;;;;5061678;28;20235;-62
2021/05/05 10:18:48;;;;;;;5.30;1.95;;;10.50;1.00;;;;;;5062032;28;20175;-61
2021/05/05 10:21:15;;;;;;;6.03;2.00;;;10.60;1.00;;;;;;5061209;28;20191;-60
2021/05/05 10:23:45;;;;;;;4.63;1.70;;;10.30;1.00;;;;;;5060784;28;20280;-65
2021/05/05 10:26:11;;;;;;;3.58;1.83;;;9.80;99.90;;;;;;5061454;28;20177;-63
2021/05/05 10:28:39;;;;;;;2.88;1.50;;;9.60;99.90;;;;;;5057906;28;20180;-66
2021/05/05 10:31:09;;;;;;;9.77;1.60;;;9.40;1.00;;;;;;5055271;28;20184;-66
2021/05/05 10:33:39;;;;;;;3.75;1.38;;;9.70;1.00;;;;;;5054885;28;20617;-66
2021/05/05 10:36:35;;;;;;;3.97;1.40;;;10.10;1.00;;;;;;5054050;28;20180;-66
2021/05/05 10:39:24;;;;;;;4.00;1.17;;;10.30;42.20;;;;;;5055924;28;20172;-66
2021/05/05 10:42:01;;;;;;;1.90;1.08;;;10.30;1.00;;;;;;5045888;28;20189;-66
2021/05/05 10:44:52;;;;;;;3.20;1.40;;;10.20;1.00;;;;;;5054136;28;20181;-64
2021/05/05 10:47:19;;;;;;;5.63;2.08;;;10.20;1.00;;;;;;5056253;28;20188;-65
2021/05/05 10:50:03;;;;;;;4.38;1.67;;;10.30;99.90;;;;;;5055253;28;20180;-66
2021/05/05 10:52:30;;;;;;;3.08;1.27;;;10.30;4.70;;;;;;5054939;28;20560;-66
2021/05/05 10:54:57;;;;;;;3.83;1.85;;;10.50;99.90;;;;;;5053604;28;20173;-66
2021/05/05 10:57:24;;;;;;;2.50;1.42;;;10.60;99.90;;;;;;5054422;28;20180;-66
2021/05/05 11:00:09;;;;;;;3.08;1.42;;;11.20;1.00;;;;;;5054330;28;20272;-66
2021/05/05 11:02:40;;;;;;;1.90;1.70;;;11.40;1.00;;;;;;5054596;28;20240;-65
2021/05/05 11:05:16;;;;;;;3.10;1.67;;;10.80;99.90;;;;;;5053968;28;20238;-65
2021/05/05 11:07:53;;;;;;;1.63;1.05;;;10.50;1.00;;;;;;5054188;28;20187;-65
2021/05/05 11:10:35;;;;;;;2.45;1.20;;;10.60;99.90;;;;;;5054167;28;20198;-65
2021/05/05 11:13:02;;;;;;;1.52;1.00;;;11.00;99.90;;;;;;5066527;28;20192;-64
2021/05/05 11:15:40;;;;;;;2.35;1.30;;;11.30;1.00;;;;;;5066702;28;20185;-66
2021/05/05 11:18:24;;;;;;;1.55;0.75;;;11.30;1.00;;;;;;5055356;28;20215;-66
2021/05/05 11:20:51;;;;;;;1.23;0.77;;;10.70;1.00;;;;;;5055099;28;20184;-67
2021/05/05 11:23:35;;;;;;;0.95;0.82;;;10.60;8.80;;;;;;5054514;28;20173;-65
2021/05/05 11:26:31;;;;;;;2.92;0.93;;;10.70;99.90;;;;;;5053736;28;20238;-65
2021/05/05 11:29:04;;;;;;;1.45;0.85;;;10.10;99.90;;;;;;5054260;28;20188;-67
2021/05/05 11:31:45;;;;;;;0.50;0.50;;;9.80;69.30;;;;;;5054341;28;20180;-65
2021/05/05 11:34:17;;;;;;;3.88;1.00;;;9.40;99.90;;;;;;5054279;28;20291;-67
2021/05/05 11:36:43;;;;;;;0.50;0.50;;;9.40;1.00;;;;;;5056871;28;20178;-66
2021/05/05 11:39:20;;;;;;;1.77;0.65;;;9.60;1.00;;;;;;5057332;28;20618;-66
2021/05/05 11:42:25;;;;;;;1.85;0.60;;;10.00;1.00;;;;;;5059343;28;20259;-67
2021/05/05 11:44:52;;;;;;;2.55;0.70;;;10.40;1.00;;;;;;5034162;28;20235;-68
2021/05/05 11:47:25;;;;;;;0.50;0.40;;;10.30;99.90;;;;;;5034715;28;20181;-67
2021/05/05 11:49:53;;;;;;;0.65;0.40;;;10.20;99.90;;;;;;5035055;28;20595;-66
2021/05/05 11:52:29;;;;;;;1.45;0.75;;;10.50;99.90;;;;;;5040560;28;20648;-66
2021/05/05 11:55:00;;;;;;;2.65;1.20;;;10.80;99.90;;;;;;5052284;28;20242;-64
2021/05/05 11:57:29;;;;;;;1.25;0.70;;;11.10;99.90;;;;;;5046105;28;20669;-65
2021/05/05 11:59:55;;;;;;;1.63;0.70;;;11.20;99.90;;;;;;5042234;28;20185;-67
2021/05/05 12:02:22;;;;;;;3.13;1.10;;;10.70;1.00;;;;;;5038534;28;20173;-67
2021/05/05 12:04:49;;;;;;;2.00;0.70;;;10.60;99.90;;;;;;5034470;28;20622;-66
2021/05/05 12:07:18;;;;;;;1.25;0.63;;;10.70;1.00;;;;;;5054447;28;20177;-67
2021/05/05 12:09:44;;;;;;;3.47;0.75;;;10.60;1.00;;;;;;5053721;28;20181;-65
2021/05/05 12:12:22;;;;;;;1.25;0.70;;;10.70;1.00;;;;;;5061207;28;20182;-66
2021/05/05 12:14:51;;;;;;;1.85;0.77;;;10.30;1.00;;;;;;5060370;28;20189;-66
2021/05/05 12:17:46;;;;;;;1.50;0.70;;;10.50;99.90;;;;;;5053879;28;20192;-66
2021/05/05 12:20:14;;;;;;;0.95;0.75;;;10.20;1.00;;;;;;5054173;28;20168;-66
2021/05/05 12:22:54;;;;;;;2.08;0.98;;;10.00;91.70;;;;;;5053499;28;20636;-66
2021/05/05 12:25:23;;;;;;;0.68;0.60;;;9.80;99.90;;;;;;5053235;28;20282;-66
2021/05/05 12:28:06;;;;;;;1.20;1.10;;;9.90;99.90;;;;;;5053704;28;20769;-66
2021/05/05 12:30:43;;;;;;;1.98;0.75;;;10.00;99.90;;;;;;5051739;28;20184;-66
2021/05/05 12:33:09;;;;;;;1.02;0.85;;;9.70;1.00;;;;;;5031874;28;20215;-65
2021/05/05 12:35:35;;;;;;;0.90;0.80;;;9.40;1.00;;;;;;5033255;28;20181;-65
2021/05/05 12:38:16;;;;;;;1.70;0.70;;;9.20;1.00;;;;;;5034459;28;20173;-65
2021/05/05 12:40:42;;;;;;;3.55;0.90;;;8.90;1.00;;;;;;5033671;28;20318;-63
2021/05/05 12:43:14;;;;;;;2.10;1.10;;;8.70;91.10;;;;;;5033275;28;20223;-63
2021/05/05 12:45:39;;;;;;;3.13;1.17;;;8.90;99.90;;;;;;5032642;28;20180;-64
2021/05/05 12:48:06;;;;;;;1.70;1.20;;;8.80;99.90;;;;;;5033628;28;20184;-64
2021/05/05 12:50:43;;;;;;;3.88;1.13;;;8.60;99.90;;;;;;5033723;28;20263;-65
2021/05/05 12:53:10;;;;;;;1.70;1.60;;;8.40;99.90;;;;;;5033229;28;20216;-64
2021/05/05 12:55:39;;;;;;;0.90;0.80;;;8.40;99.90;;;;;;5033230;28;20184;-64
2021/05/05 12:58:13;;;;;;;1.10;0.80;;;8.40;99.90;;;;;;5033439;28;20185;-65
2021/05/05 13:00:44;;;;;;;3.00;1.10;;;8.70;99.90;;;;;;5033762;28;20169;-64
2021/05/05 13:03:13;;;;;;;1.65;1.50;;;9.00;99.90;;;;;;5033036;28;20188;-62
2021/05/05 13:05:58;;;;;;;4.43;1.10;;;9.50;99.90;;;;;;5032808;28;20191;-62
2021/05/05 13:08:36;;;;;;;1.92;1.02;;;9.50;99.90;;;;;;5036785;28;20667;-63
2021/05/05 13:11:07;;;;;;;1.90;1.10;;;9.50;99.90;;;;;;5037630;28;20274;-62
2021/05/05 13:13:50;;;;;;;1.40;1.30;;;9.70;99.90;;;;;;5054882;28;20265;-62